Time;durP1;ratioP1;P1;durP2;ratioP2;P2;SDS_P1;SDS_P2;PMS_P1;PMS_P2;Temp;Humidity;BMP_temperature;BMP_pressure;BME280_temperature;BME280_humidity;BME280_pressure;Samples;Min_cycle;Max_cycle;Signal;HPM_P1;HPM_P2
2022/11/21 00:02:03;;;;;;;2.47;0.70;;;8.20;99.90;;;;;;6148181;28;20061;-84
2022/11/21 00:05:07;;;;;;;0.55;0.40;;;8.10;99.90;;;;;;6152298;28;20098;-84
2022/11/21 00:08:10;;;;;;;1.25;0.80;;;8.10;99.90;;;;;;6151081;28;20051;-83
2022/11/21 00:11:12;;;;;;;0.95;0.60;;;8.10;99.90;;;;;;6152301;28;20055;-83
2022/11/21 00:14:14;;;;;;;3.45;1.35;;;8.20;99.90;;;;;;6151850;28;20424;-85
2022/11/21 00:17:15;;;;;;;5.57;0.95;;;8.30;99.90;;;;;;6140870;28;20052;-85
2022/11/21 00:20:20;;;;;;;2.33;0.88;;;8.30;99.90;;;;;;6145431;28;20050;-84
2022/11/21 00:23:24;;;;;;;1.45;0.63;;;8.30;99.90;;;;;;6151412;29;20051;-84
2022/11/21 00:26:26;;;;;;;4.97;0.60;;;8.40;99.90;;;;;;6149750;28;20047;-85
2022/11/21 00:29:28;;;;;;;2.30;0.70;;;8.50;99.90;;;;;;6148932;28;20061;-85
2022/11/21 00:32:30;;;;;;;3.63;0.73;;;8.50;99.90;;;;;;6152855;28;20505;-85
2022/11/21 00:35:33;;;;;;;1.27;0.45;;;8.60;99.90;;;;;;6153216;29;20054;-86
2022/11/21 00:38:35;;;;;;;2.50;0.73;;;8.70;99.90;;;;;;6152136;28;20051;-86
2022/11/21 00:41:36;;;;;;;2.53;0.75;;;8.70;99.90;;;;;;6152333;28;20047;-86
2022/11/21 00:44:38;;;;;;;3.25;0.88;;;8.70;99.90;;;;;;6152673;28;20043;-85
2022/11/21 00:47:40;;;;;;;4.97;0.82;;;8.70;99.90;;;;;;6151934;28;20469;-87
2022/11/21 00:50:43;;;;;;;2.38;0.80;;;8.70;99.90;;;;;;6153071;29;20051;-86
2022/11/21 00:53:45;;;;;;;1.20;0.70;;;8.60;99.90;;;;;;6152844;28;20051;-87
2022/11/21 00:56:47;;;;;;;1.13;0.35;;;8.60;99.90;;;;;;6153071;28;20051;-86
2022/11/21 00:59:48;;;;;;;2.30;0.60;;;8.60;99.90;;;;;;6151976;28;20489;-86
2022/11/21 01:02:50;;;;;;;2.53;0.50;;;8.60;99.90;;;;;;6153269;29;20051;-85
2022/11/21 01:05:53;;;;;;;1.10;0.55;;;8.60;99.90;;;;;;6152753;28;20047;-85
2022/11/21 01:08:55;;;;;;;18.23;2.15;;;8.60;99.90;;;;;;6151337;28;20057;-85
2022/11/21 01:11:57;;;;;;;1.25;0.30;;;8.60;99.90;;;;;;6152250;28;20097;-85
2022/11/21 01:14:59;;;;;;;3.08;0.65;;;8.60;99.90;;;;;;6152660;29;20055;-85
2022/11/21 01:18:01;;;;;;;6.60;1.42;;;8.70;99.90;;;;;;6150963;28;20077;-85
2022/11/21 01:21:05;;;;;;;7.03;0.80;;;8.60;99.90;;;;;;6148363;28;20058;-86
2022/11/21 01:24:10;;;;;;;2.55;0.70;;;8.60;99.90;;;;;;6151701;28;20048;-86
2022/11/21 01:27:12;;;;;;;1.58;0.60;;;8.60;99.90;;;;;;6151664;28;20529;-86
2022/11/21 01:30:14;;;;;;;3.92;0.88;;;8.70;99.90;;;;;;6130749;28;20105;-86
2022/11/21 01:33:16;;;;;;;9.02;0.88;;;8.70;99.90;;;;;;6127985;28;20048;-85
2022/11/21 01:36:20;;;;;;;6.95;1.08;;;8.80;99.90;;;;;;6127684;28;20414;-85
2022/11/21 01:39:22;;;;;;;5.65;1.88;;;8.70;99.90;;;;;;6127373;29;20051;-86
2022/11/21 01:42:24;;;;;;;4.50;0.80;;;8.70;99.90;;;;;;6127783;28;20395;-85
2022/11/21 01:46:02;;;;;;;10.57;0.93;;;8.60;99.90;;;;;;6127775;28;20039;-86
2022/11/21 01:49:08;;;;;;;7.88;1.15;;;8.60;99.90;;;;;;6127250;28;20050;-85
2022/11/21 01:52:16;;;;;;;4.07;1.33;;;8.60;99.90;;;;;;6127046;28;20413;-83
2022/11/21 01:55:18;;;;;;;8.02;0.95;;;8.50;99.90;;;;;;6128189;29;20387;-84
2022/11/21 01:58:21;;;;;;;0.75;0.32;;;8.50;99.90;;;;;;6126909;28;20051;-84
2022/11/21 02:01:23;;;;;;;5.75;0.60;;;8.50;99.90;;;;;;6127165;28;20402;-84
2022/11/21 02:04:29;;;;;;;3.15;0.82;;;8.50;99.90;;;;;;6127510;28;20052;-84
2022/11/21 02:07:38;;;;;;;1.00;0.80;;;8.50;99.90;;;;;;6126744;29;20407;-85
2022/11/21 08:37:16;;;;;;;9.90;2.05;;;11.50;99.90;;;;;;6340728;27;20362;-86
2022/11/21 08:40:18;;;;;;;2.05;0.70;;;11.40;99.90;;;;;;6308483;28;20048;-85
2022/11/21 08:43:36;;;;;;;6.68;0.90;;;11.10;99.90;;;;;;6343391;28;20058;-84
2022/11/21 08:46:39;;;;;;;2.10;0.73;;;11.00;99.90;;;;;;6343222;28;20505;-85
2022/11/21 08:49:52;;;;;;;9.32;0.93;;;11.00;99.90;;;;;;6336541;28;20428;-85
2022/11/21 08:53:04;;;;;;;4.18;1.20;;;10.80;99.90;;;;;;6342178;28;20523;-88
2022/11/21 08:56:08;;;;;;;5.50;0.70;;;10.40;99.90;;;;;;6342789;28;20036;-86
2022/11/21 08:59:10;;;;;;;12.15;1.45;;;10.40;99.90;;;;;;6343284;28;20054;-85
2022/11/21 09:02:12;;;;;;;8.13;2.65;;;10.20;99.90;;;;;;6343259;28;20052;-86
2022/11/21 09:05:14;;;;;;;1.98;0.30;;;10.00;99.90;;;;;;6343214;28;20044;-88
2022/11/21 09:08:18;;;;;;;3.78;0.82;;;9.70;99.90;;;;;;6342554;28;20067;-85
2022/11/21 09:11:20;;;;;;;3.78;0.50;;;9.60;99.90;;;;;;6344299;28;20056;-85
2022/11/21 09:21:00;;;;;;;3.55;1.17;;;9.50;99.90;;;;;;6326147;28;20445;-86
2022/11/21 09:24:08;;;;;;;1.45;0.60;;;9.40;99.90;;;;;;6318108;28;20048;-87
2022/11/21 09:27:11;;;;;;;6.78;1.40;;;9.20;99.90;;;;;;6317634;28;20118;-86
2022/11/21 09:30:13;;;;;;;9.35;1.63;;;9.10;99.90;;;;;;6316719;28;20654;-86
2022/11/21 09:33:16;;;;;;;4.68;1.48;;;9.20;99.90;;;;;;6317041;28;20048;-86
2022/11/21 09:36:18;;;;;;;1.38;0.60;;;9.30;99.90;;;;;;6329308;28;20054;-86
2022/11/21 09:39:21;;;;;;;3.90;1.17;;;9.50;99.90;;;;;;6342282;28;20097;-86
2022/11/21 09:42:52;;;;;;;9.30;1.60;;;9.70;99.90;;;;;;6342589;28;20440;-86
2022/11/21 09:46:06;;;;;;;2.03;0.60;;;9.90;99.90;;;;;;6344972;28;20043;-87
2022/11/21 09:53:06;;;;;;;4.68;1.17;;;10.50;99.90;;;;;;6323292;28;20566;-86
2022/11/21 09:56:18;;;;;;;4.40;1.60;;;11.00;99.90;;;;;;6322660;28;20044;-86
2022/11/21 09:59:45;;;;;;;8.27;1.95;;;11.40;99.90;;;;;;6325714;28;20120;-87
2022/11/21 10:02:54;;;;;;;3.58;2.13;;;11.90;99.90;;;;;;6325925;28;20052;-87
2022/11/21 10:06:07;;;;;;;7.97;1.70;;;12.20;99.90;;;;;;6329962;28;20047;-87
2022/11/21 10:09:22;;;;;;;11.68;2.83;;;12.60;99.90;;;;;;6326295;28;20054;-87
2022/11/21 10:16:26;;;;;;;5.85;1.38;;;13.40;99.90;;;;;;6336629;28;20067;-87
2022/11/21 10:36:05;;;;;;;2.60;0.82;;;15.00;99.90;;;;;;6091345;28;20495;-86
2022/11/21 10:39:20;;;;;;;2.13;0.55;;;15.50;99.90;;;;;;6197198;28;20265;-85
2022/11/21 10:42:33;;;;;;;2.00;0.55;;;15.80;99.90;;;;;;6237795;28;20055;-85
2022/11/21 10:45:41;;;;;;;2.13;1.05;;;16.00;99.90;;;;;;6299205;28;20498;-85
2022/11/21 10:48:55;;;;;;;6.70;1.35;;;16.20;99.90;;;;;;6296229;28;20048;-85
2022/11/21 10:52:11;;;;;;;5.22;0.90;;;16.20;99.90;;;;;;6324070;28;20052;-85
2022/11/21 10:55:24;;;;;;;3.90;1.30;;;16.20;99.90;;;;;;6325324;28;20131;-85
2022/11/21 10:58:48;;;;;;;5.07;0.95;;;16.30;99.90;;;;;;6321277;28;20067;-86
2022/11/21 11:01:57;;;;;;;4.85;1.10;;;16.30;99.90;;;;;;6322061;28;20106;-85
2022/11/21 11:05:19;;;;;;;3.47;0.90;;;16.50;99.90;;;;;;6323142;28;20059;-85
2022/11/21 11:08:25;;;;;;;11.20;1.27;;;16.50;99.90;;;;;;6320921;28;20127;-85
2022/11/21 11:11:31;;;;;;;2.40;0.90;;;16.50;99.90;;;;;;6323628;28;20044;-85
2022/11/21 11:14:35;;;;;;;7.95;1.33;;;16.60;99.90;;;;;;6322064;28;20052;-85
2022/11/21 11:17:38;;;;;;;2.15;0.88;;;16.50;99.90;;;;;;6321351;28;20059;-85
2022/11/21 11:20:51;;;;;;;4.50;1.45;;;16.30;99.90;;;;;;6306019;28;20536;-85
2022/11/21 12:16:30;;;;;;;6.97;1.23;;;16.50;99.90;;;;;;6119422;29;20048;-85
2022/11/21 12:20:26;;;;;;;7.63;0.80;;;16.90;99.90;;;;;;6137750;28;20054;-87
2022/11/21 12:23:39;;;;;;;3.95;1.73;;;17.00;99.90;;;;;;6175979;28;20440;-86
2022/11/21 12:27:02;;;;;;;5.13;0.63;;;17.10;99.90;;;;;;6175656;28;20080;-86
2022/11/21 12:30:40;;;;;;;10.52;0.95;;;17.30;99.90;;;;;;6256787;28;20525;-85
2022/11/21 12:34:27;;;;;;;6.20;0.70;;;17.40;99.90;;;;;;6317304;28;20581;-85
2022/11/21 12:38:08;;;;;;;3.53;1.02;;;17.70;99.90;;;;;;6297037;28;20052;-85
2022/11/21 12:45:01;;;;;;;4.47;0.77;;;18.40;99.90;;;;;;6313308;28;20036;-85
2022/11/21 12:55:24;;;;;;;4.32;0.88;;;19.00;99.90;;;;;;6322962;28;20493;-85
2022/11/21 12:58:31;;;;;;;5.15;0.88;;;19.00;99.90;;;;;;6321065;28;20083;-85
2022/11/21 13:01:44;;;;;;;4.20;0.60;;;19.10;99.90;;;;;;6341467;28;20110;-84
2022/11/21 13:05:39;;;;;;;3.55;0.77;;;19.30;99.90;;;;;;6330880;28;20097;-84
2022/11/21 13:12:13;;;;;;;3.63;0.68;;;19.30;99.90;;;;;;6303484;28;20524;-86
2022/11/21 13:15:32;;;;;;;2.05;0.43;;;19.20;99.90;;;;;;6307461;28;20064;-85
2022/11/21 13:18:43;;;;;;;7.50;0.60;;;19.30;99.90;;;;;;6306992;28;20080;-85
2022/11/21 13:21:55;;;;;;;8.90;1.35;;;19.00;99.90;;;;;;6298589;28;20072;-86
2022/11/21 13:24:58;;;;;;;9.82;1.40;;;18.70;99.40;;;;;;6300996;28;20103;-85
2022/11/21 13:28:32;;;;;;;3.50;0.73;;;18.30;99.30;;;;;;6301237;28;20493;-85
2022/11/21 13:31:35;;;;;;;10.45;0.95;;;17.80;99.60;;;;;;6301034;28;20570;-83
2022/11/21 13:34:39;;;;;;;4.57;0.80;;;17.30;99.90;;;;;;6299983;28;20048;-84
2022/11/21 13:37:59;;;;;;;27.67;10.70;;;16.80;99.90;;;;;;6299859;28;20451;-85
2022/11/21 13:44:39;;;;;;;7.78;1.23;;;16.00;99.90;;;;;;6326009;28;20048;-86
2022/11/21 13:48:19;;;;;;;15.98;3.83;;;15.50;99.90;;;;;;6325904;28;20044;-84
2022/11/21 13:51:51;;;;;;;5.03;1.52;;;15.20;99.90;;;;;;6327249;28;20133;-87
2022/11/21 13:55:19;;;;;;;8.55;1.08;;;15.00;99.90;;;;;;6325011;28;20051;-85
2022/11/21 13:58:33;;;;;;;4.23;1.20;;;14.80;99.90;;;;;;6329868;28;20076;-84
2022/11/21 14:02:05;;;;;;;5.93;0.68;;;14.80;99.90;;;;;;6325477;28;20423;-86
2022/11/21 14:05:20;;;;;;;2.70;0.70;;;14.70;99.90;;;;;;6310187;28;20074;-86
2022/11/21 14:08:24;;;;;;;9.68;1.40;;;14.70;99.90;;;;;;6325189;28;20123;-86
2022/11/21 14:11:35;;;;;;;3.97;0.68;;;14.70;99.90;;;;;;6328499;28;20573;-86
2022/11/21 14:14:40;;;;;;;8.85;1.15;;;14.60;99.90;;;;;;6326585;28;20056;-87
2022/11/21 14:17:47;;;;;;;2.88;0.70;;;14.40;99.90;;;;;;6324890;28;20657;-86
2022/11/21 14:20:52;;;;;;;10.52;1.25;;;14.10;99.90;;;;;;6311079;28;20055;-88
2022/11/21 14:24:03;;;;;;;7.10;1.77;;;14.00;99.90;;;;;;6292224;28;20426;-87
2022/11/21 14:27:14;;;;;;;10.00;0.98;;;13.90;99.90;;;;;;6302361;28;20048;-86
2022/11/21 14:33:57;;;;;;;4.57;1.05;;;13.50;99.90;;;;;;6279643;28;20064;-87
2022/11/21 14:37:04;;;;;;;7.05;0.88;;;13.40;99.90;;;;;;6301398;28;20063;-87
2022/11/21 14:40:16;;;;;;;3.00;1.48;;;13.20;99.90;;;;;;6290907;28;20565;-87
2022/11/21 14:43:46;;;;;;;3.90;0.82;;;13.20;99.90;;;;;;6301392;28;20414;-88
2022/11/21 14:46:48;;;;;;;3.90;1.23;;;13.10;99.90;;;;;;6303345;28;20052;-86
2022/11/21 14:49:52;;;;;;;2.58;0.70;;;13.00;99.90;;;;;;6316413;28;20059;-87
2022/11/21 14:53:02;;;;;;;4.35;0.80;;;12.80;99.90;;;;;;6300088;28;20045;-87
2022/11/21 14:56:04;;;;;;;3.65;2.00;;;12.50;99.90;;;;;;6303936;28;20449;-87
2022/11/21 14:59:16;;;;;;;9.63;1.05;;;12.40;99.90;;;;;;6313874;28;20055;-87
2022/11/21 15:02:20;;;;;;;4.15;1.13;;;12.30;99.90;;;;;;6308509;28;20052;-87
2022/11/21 15:05:33;;;;;;;7.65;1.17;;;12.20;99.90;;;;;;6302338;28;20417;-89
2022/11/21 15:08:39;;;;;;;9.07;2.08;;;12.10;99.90;;;;;;6300073;28;20048;-86
2022/11/21 15:11:49;;;;;;;1.80;0.68;;;12.00;99.90;;;;;;6299749;28;20052;-89
2022/11/21 15:14:56;;;;;;;3.60;0.80;;;12.00;99.90;;;;;;6299581;28;20053;-85
2022/11/21 15:18:03;;;;;;;10.15;1.55;;;12.00;99.90;;;;;;6311067;28;20518;-87
2022/11/21 15:21:08;;;;;;;1.50;0.68;;;12.00;99.90;;;;;;6300989;28;20651;-87
2022/11/21 15:28:23;;;;;;;3.85;0.57;;;11.60;99.90;;;;;;6308273;28;20040;-87
2022/11/21 15:32:11;;;;;;;2.85;0.95;;;11.40;99.90;;;;;;6317489;28;20076;-85
2022/11/21 15:38:55;;;;;;;11.55;1.42;;;10.90;99.90;;;;;;6294716;28;20106;-86
2022/11/21 15:42:34;;;;;;;5.72;0.82;;;10.70;99.90;;;;;;6317095;28;20043;-86
2022/11/21 15:49:57;;;;;;;13.63;1.73;;;10.40;99.90;;;;;;6255790;28;20052;-87
2022/11/21 15:52:59;;;;;;;0.82;0.45;;;10.30;99.90;;;;;;6313486;28;20070;-87
2022/11/21 15:56:02;;;;;;;12.63;1.92;;;10.20;99.90;;;;;;6310858;28;20115;-87
2022/11/21 15:59:07;;;;;;;7.93;2.17;;;10.10;99.90;;;;;;6309541;28;20059;-87
2022/11/21 16:02:12;;;;;;;12.25;2.38;;;10.10;99.90;;;;;;6326209;28;20044;-87
2022/11/21 16:05:15;;;;;;;6.13;1.33;;;10.00;99.90;;;;;;6328024;28;20123;-88
2022/11/21 16:08:23;;;;;;;5.40;1.40;;;10.00;99.90;;;;;;6316740;28;20044;-88
2022/11/21 16:11:28;;;;;;;6.10;1.23;;;9.80;99.90;;;;;;6299562;28;20138;-87
2022/11/21 16:14:41;;;;;;;4.25;0.93;;;9.70;99.90;;;;;;6292370;28;20048;-88
2022/11/21 16:17:52;;;;;;;3.92;0.95;;;9.60;99.90;;;;;;6309570;28;20040;-89
2022/11/21 16:24:55;;;;;;;8.48;1.50;;;9.40;99.90;;;;;;6331863;28;20122;-88
2022/11/21 16:27:58;;;;;;;11.73;1.55;;;9.50;99.90;;;;;;6327229;28;20051;-88
2022/11/21 16:31:01;;;;;;;4.18;1.63;;;9.30;99.90;;;;;;6324246;28;20056;-89
2022/11/21 16:34:03;;;;;;;4.82;1.45;;;9.30;99.90;;;;;;6323409;28;20052;-88
2022/11/21 16:37:05;;;;;;;6.13;1.38;;;9.30;99.90;;;;;;6322893;28;20127;-88
2022/11/21 16:40:09;;;;;;;6.97;1.15;;;9.30;99.90;;;;;;6321572;28;20043;-88
2022/11/21 16:43:12;;;;;;;5.22;1.30;;;9.30;99.90;;;;;;6315060;28;20052;-88
2022/11/21 16:46:16;;;;;;;2.28;0.90;;;9.30;99.90;;;;;;6321885;28;20047;-88
2022/11/21 16:49:19;;;;;;;6.75;1.02;;;9.30;99.90;;;;;;6315632;28;20154;-88
2022/11/21 16:52:20;;;;;;;8.45;1.15;;;9.30;99.90;;;;;;6322893;28;20044;-88
2022/11/21 16:55:22;;;;;;;6.80;3.13;;;9.20;99.90;;;;;;6323274;28;20097;-88
2022/11/21 16:58:25;;;;;;;5.07;0.70;;;9.10;99.90;;;;;;6326387;28;20449;-88
2022/11/21 17:01:27;;;;;;;6.05;1.60;;;9.10;99.90;;;;;;6333912;28;20040;-89
2022/11/21 17:34:37;;;;;;;3.88;1.17;;;8.90;99.90;;;;;;6290535;28;20051;-88
2022/11/21 17:37:39;;;;;;;8.00;2.88;;;9.00;99.90;;;;;;6301274;28;20048;-88
2022/11/21 17:40:40;;;;;;;4.22;1.90;;;9.00;99.90;;;;;;6300954;28;20052;-88
2022/11/21 17:43:43;;;;;;;6.00;1.98;;;9.00;99.90;;;;;;6300709;28;20061;-86
2022/11/21 17:46:45;;;;;;;6.60;1.05;;;9.10;99.90;;;;;;6300743;28;20059;-87
2022/11/21 17:49:48;;;;;;;3.15;0.90;;;9.20;99.90;;;;;;6269513;28;20049;-87
2022/11/21 17:52:50;;;;;;;6.88;1.25;;;9.30;99.90;;;;;;6276682;28;20053;-88
2022/11/21 17:55:57;;;;;;;5.97;1.17;;;9.40;99.90;;;;;;6296253;28;20056;-87
2022/11/21 17:58:59;;;;;;;5.72;0.93;;;9.50;99.90;;;;;;6291863;28;20407;-87
2022/11/21 18:02:03;;;;;;;10.00;1.65;;;9.60;99.90;;;;;;6275943;28;20044;-87
2022/11/21 18:05:07;;;;;;;5.57;1.15;;;9.70;99.90;;;;;;6280830;28;20506;-88
2022/11/21 18:08:08;;;;;;;3.42;0.75;;;9.80;99.90;;;;;;6274936;28;20051;-89
2022/11/21 18:11:12;;;;;;;4.07;1.00;;;9.80;99.90;;;;;;6275508;28;20045;-88
2022/11/21 18:14:14;;;;;;;3.67;1.02;;;9.80;99.90;;;;;;6275457;28;20131;-89
2022/11/21 18:17:16;;;;;;;1.83;1.10;;;9.80;99.90;;;;;;6280132;28;20127;-88
2022/11/21 18:20:19;;;;;;;5.07;1.45;;;9.90;99.90;;;;;;6286967;28;20044;-89
2022/11/21 18:23:21;;;;;;;2.67;0.70;;;10.00;99.90;;;;;;6300591;28;20418;-89
2022/11/21 18:30:03;;;;;;;13.35;1.50;;;10.20;99.90;;;;;;6290930;28;20844;-88
2022/11/21 18:33:05;;;;;;;5.78;1.90;;;10.30;99.90;;;;;;6273609;28;20060;-88
2022/11/21 18:36:10;;;;;;;6.90;2.47;;;10.40;99.90;;;;;;6276140;28;20045;-88
2022/11/21 18:39:23;;;;;;;5.68;1.40;;;10.50;99.90;;;;;;6278461;28;20462;-89
2022/11/21 18:46:04;;;;;;;13.82;1.58;;;10.50;99.90;;;;;;6284236;28;20044;-88
2022/11/21 18:49:23;;;;;;;3.65;2.17;;;10.40;99.90;;;;;;6292810;28;20098;-90
2022/11/21 18:52:27;;;;;;;10.07;2.25;;;10.50;99.90;;;;;;6282892;28;20060;-88
2022/11/21 18:55:38;;;;;;;5.82;2.25;;;10.50;99.90;;;;;;6287085;28;20072;-88
2022/11/21 18:58:47;;;;;;;17.38;5.40;;;10.40;99.90;;;;;;6278145;28;20053;-88
2022/11/21 19:05:11;;;;;;;3.13;1.48;;;10.20;99.90;;;;;;6264168;28;20072;-88
2022/11/21 19:08:28;;;;;;;5.50;1.25;;;10.10;99.90;;;;;;6262133;28;20140;-89
2022/11/21 19:11:35;;;;;;;5.30;1.20;;;10.10;99.90;;;;;;6275731;28;20049;-88
2022/11/21 19:14:37;;;;;;;5.72;1.02;;;10.10;99.90;;;;;;6273761;28;20432;-88
2022/11/21 19:17:39;;;;;;;4.55;1.00;;;10.10;99.90;;;;;;6284085;28;20139;-88
2022/11/21 19:20:41;;;;;;;4.00;0.90;;;10.20;99.90;;;;;;6289261;28;20040;-88
2022/11/21 19:23:44;;;;;;;7.55;1.27;;;10.20;99.90;;;;;;6298768;28;20139;-88
2022/11/21 19:26:49;;;;;;;2.47;1.35;;;10.40;99.90;;;;;;6299400;28;20052;-88
2022/11/21 19:33:07;;;;;;;12.20;1.38;;;10.50;99.90;;;;;;6297737;28;20048;-87
2022/11/21 19:36:12;;;;;;;7.25;1.50;;;10.50;99.90;;;;;;6300962;28;20041;-89
2022/11/21 19:39:16;;;;;;;6.65;1.15;;;10.40;99.90;;;;;;6300030;28;20045;-89
2022/11/21 19:42:17;;;;;;;6.72;1.08;;;10.40;99.90;;;;;;6298048;28;20615;-89
